createdAt,value
2022-12-06T00:02:14.100Z,1.70
2022-12-06T00:04:42.252Z,1.90
2022-12-06T00:07:11.562Z,1.80
2022-12-06T00:09:39.707Z,1.70
2022-12-06T00:12:09.254Z,1.90
2022-12-06T00:14:37.453Z,1.80
2022-12-06T00:17:05.509Z,1.70
2022-12-06T00:19:33.598Z,1.70
2022-12-06T00:22:01.692Z,1.70
2022-12-06T00:24:29.718Z,1.70
2022-12-06T00:26:57.793Z,1.90
2022-12-06T00:29:27.299Z,1.80
2022-12-06T00:31:55.412Z,1.90
2022-12-06T00:34:23.480Z,2.10
2022-12-06T00:36:51.577Z,2.10
2022-12-06T00:39:19.635Z,2.00
2022-12-06T00:41:47.781Z,1.90
2022-12-06T00:44:15.883Z,1.90
2022-12-06T00:46:45.349Z,2.00
2022-12-06T00:49:13.422Z,1.90
2022-12-06T00:51:41.581Z,1.80
2022-12-06T00:54:10.194Z,1.80
2022-12-06T00:56:38.259Z,1.80
2022-12-06T00:59:06.314Z,1.80
2022-12-06T01:01:36.142Z,1.80
2022-12-06T01:04:06.802Z,1.80
2022-12-06T01:06:36.057Z,2.00
2022-12-06T01:09:05.727Z,2.10
2022-12-06T01:11:33.729Z,1.90
2022-12-06T01:14:02.122Z,1.90
2022-12-06T01:16:30.672Z,2.00
2022-12-06T01:18:59.525Z,2.00
2022-12-06T01:21:29.579Z,2.00
2022-12-06T01:23:57.506Z,1.90
2022-12-06T01:26:27.022Z,1.90
2022-12-06T01:28:54.957Z,2.00
2022-12-06T01:31:22.945Z,1.90
2022-12-06T01:33:50.970Z,1.90
2022-12-06T01:36:19.656Z,1.90
2022-12-06T01:38:51.793Z,2.00
2022-12-06T01:41:19.826Z,1.90
2022-12-06T01:43:47.914Z,1.90
2022-12-06T01:46:21.841Z,2.10
2022-12-06T01:48:49.906Z,2.20
2022-12-06T01:51:17.912Z,2.10
2022-12-06T01:53:46.065Z,2.00
2022-12-06T01:56:15.590Z,1.90
2022-12-06T01:58:43.578Z,1.80
2022-12-06T02:01:11.593Z,1.80
2022-12-06T02:03:39.566Z,1.70
2022-12-06T02:06:09.010Z,1.70
2022-12-06T02:08:37.055Z,1.50
2022-12-06T02:11:05.123Z,1.60
2022-12-06T02:13:35.280Z,1.60
2022-12-06T02:16:11.295Z,1.50
2022-12-06T02:18:42.544Z,1.50
2022-12-06T02:21:16.318Z,1.40
2022-12-06T02:24:04.740Z,1.30
2022-12-06T02:26:37.325Z,1.30
2022-12-06T02:29:31.438Z,1.30
2022-12-06T02:32:01.512Z,1.30
2022-12-06T02:34:32.685Z,1.30
2022-12-06T02:37:01.929Z,1.20
2022-12-06T02:39:31.643Z,1.30
2022-12-06T02:42:01.475Z,1.20
2022-12-06T02:44:31.646Z,1.20
2022-12-06T02:47:00.843Z,1.10
2022-12-06T02:49:29.329Z,1.20
2022-12-06T02:51:57.159Z,1.40
2022-12-06T02:54:25.050Z,1.10
2022-12-06T02:56:52.932Z,1.10
2022-12-06T02:59:20.787Z,1.20
2022-12-06T03:01:49.731Z,1.30
2022-12-06T03:04:47.586Z,1.30
2022-12-06T03:07:39.181Z,1.10
2022-12-06T03:10:29.771Z,1.10
2022-12-06T03:13:02.908Z,1.10
2022-12-06T03:15:37.768Z,1.00
2022-12-06T03:18:10.060Z,1.10
2022-12-06T03:20:43.740Z,1.00
2022-12-06T03:23:12.794Z,1.10
2022-12-06T03:25:40.650Z,1.10
2022-12-06T03:28:08.635Z,1.00
2022-12-06T03:30:36.519Z,1.00
2022-12-06T03:33:04.500Z,0.90
2022-12-06T03:35:33.867Z,0.80
2022-12-06T03:38:05.611Z,0.90
2022-12-06T03:40:35.030Z,0.80
2022-12-06T03:43:02.896Z,0.70
2022-12-06T03:45:34.108Z,0.70
2022-12-06T03:48:04.055Z,0.60
2022-12-06T03:50:34.284Z,0.60
2022-12-06T03:53:02.138Z,0.60
2022-12-06T03:55:31.369Z,0.60
2022-12-06T03:57:59.208Z,0.60
2022-12-06T04:00:27.057Z,0.60
2022-12-06T04:02:54.916Z,0.70
2022-12-06T04:05:22.858Z,0.80
2022-12-06T04:07:50.798Z,0.80
2022-12-06T04:10:18.782Z,0.60
2022-12-06T04:13:02.875Z,0.50
2022-12-06T04:15:32.002Z,0.50
2022-12-06T04:18:11.173Z,0.60
2022-12-06T04:20:59.046Z,0.60
2022-12-06T04:23:27.598Z,0.60
2022-12-06T04:25:55.463Z,0.40
2022-12-06T04:28:42.484Z,0.20
2022-12-06T04:31:28.100Z,0.20
2022-12-06T04:34:13.600Z,0.20
2022-12-06T04:36:59.107Z,0.40
2022-12-06T04:39:27.049Z,1.10
2022-12-06T04:42:12.559Z,0.90
2022-12-06T04:44:41.809Z,0.60
2022-12-06T04:47:09.702Z,0.40
2022-12-06T04:49:37.751Z,0.50
2022-12-06T04:52:06.497Z,0.60
2022-12-06T04:54:34.343Z,0.40
2022-12-06T04:57:02.386Z,0.40
2022-12-06T04:59:30.321Z,0.30
2022-12-06T05:01:59.580Z,0.40
2022-12-06T05:04:27.597Z,0.20
2022-12-06T05:06:55.534Z,0.20
2022-12-06T05:09:23.590Z,0.20
2022-12-06T05:11:51.474Z,0.30
2022-12-06T05:14:19.322Z,0.30
2022-12-06T05:16:47.275Z,0.20
2022-12-06T05:19:16.561Z,0.20
2022-12-06T05:21:44.476Z,0.20
2022-12-06T05:24:12.489Z,0.20
2022-12-06T05:26:40.353Z,0.30
2022-12-06T05:29:08.192Z,0.30
2022-12-06T05:31:36.054Z,0.40
2022-12-06T05:34:04.051Z,0.50
2022-12-06T05:36:33.239Z,0.60
2022-12-06T05:39:01.115Z,0.60
2022-12-06T05:41:28.971Z,0.50
2022-12-06T05:43:56.780Z,0.50
2022-12-06T05:46:24.677Z,0.40
2022-12-06T05:48:52.501Z,0.50
2022-12-06T05:51:20.328Z,0.50
2022-12-06T05:53:49.536Z,0.40
2022-12-06T05:56:17.527Z,0.30
2022-12-06T05:58:45.340Z,0.40
2022-12-06T06:01:13.153Z,0.40
2022-12-06T06:03:47.065Z,0.20
2022-12-06T06:06:15.835Z,0.10
2022-12-06T06:08:43.665Z,0.20
2022-12-06T06:11:12.866Z,0.20
2022-12-06T06:13:40.703Z,0.20
2022-12-06T06:16:09.204Z,0.30
2022-12-06T06:18:37.171Z,0.30
2022-12-06T06:21:05.186Z,0.20
2022-12-06T06:23:33.042Z,0.10
2022-12-06T06:26:00.885Z,-0.10
2022-12-06T06:28:30.105Z,-0.10
2022-12-06T06:30:57.971Z,-0.10
2022-12-06T06:33:25.878Z,-0.10
2022-12-06T06:35:53.868Z,-0.10
2022-12-06T06:38:21.808Z,-0.20
2022-12-06T06:40:49.790Z,-0.20
2022-12-06T06:43:20.926Z,-0.20
2022-12-06T06:45:54.306Z,-0.20
2022-12-06T06:48:22.558Z,-0.10
2022-12-06T06:50:55.376Z,-0.10
2022-12-06T06:53:26.458Z,-0.10
2022-12-06T06:55:54.968Z,-0.20
2022-12-06T06:58:23.024Z,-0.20
2022-12-06T07:00:55.398Z,-0.20
2022-12-06T07:03:23.705Z,-0.20
2022-12-06T07:05:55.080Z,-0.20
2022-12-06T07:08:23.110Z,-0.20
2022-12-06T07:10:51.231Z,-0.20
2022-12-06T07:13:20.716Z,-0.20
2022-12-06T07:15:48.998Z,0.00
2022-12-06T07:18:18.475Z,0.00
2022-12-06T07:20:47.066Z,-0.10
2022-12-06T07:23:15.244Z,-0.10
2022-12-06T07:25:43.089Z,-0.10
2022-12-06T07:28:11.133Z,0.00
2022-12-06T07:30:42.107Z,0.00
2022-12-06T07:33:10.332Z,-0.10
2022-12-06T07:36:10.797Z,-0.20
2022-12-06T07:38:27.870Z,-0.10
2022-12-06T07:41:04.471Z,-0.20
2022-12-06T07:43:46.987Z,-0.10
2022-12-06T07:46:15.035Z,0.00
2022-12-06T07:48:43.055Z,-0.10
2022-12-06T07:51:12.414Z,-0.20
2022-12-06T07:53:40.354Z,-0.10
2022-12-06T07:56:08.957Z,0.10
2022-12-06T07:58:36.947Z,0.00
2022-12-06T08:01:05.318Z,0.00
2022-12-06T08:03:33.286Z,0.10
2022-12-06T08:06:01.366Z,0.30
2022-12-06T08:08:31.626Z,0.30
2022-12-06T08:11:00.327Z,0.40
2022-12-06T08:13:28.613Z,0.70
2022-12-06T08:15:56.647Z,0.80
2022-12-06T08:18:25.538Z,1.20
2022-12-06T08:20:53.926Z,1.50
2022-12-06T08:23:21.894Z,1.90
2022-12-06T08:25:58.965Z,2.30
2022-12-06T08:28:27.010Z,2.50
2022-12-06T08:30:59.692Z,2.70
2022-12-06T08:33:30.703Z,3.20
2022-12-06T08:35:58.560Z,3.60
2022-12-06T08:38:26.529Z,3.50
2022-12-06T08:40:54.461Z,3.00
2022-12-06T08:43:23.718Z,2.80
2022-12-06T08:45:52.773Z,2.90
2022-12-06T08:48:21.382Z,2.90
2022-12-06T08:50:49.459Z,3.10
2022-12-06T08:53:17.410Z,3.80
2022-12-06T08:56:00.354Z,4.10
2022-12-06T08:58:31.507Z,4.60
2022-12-06T09:00:59.848Z,4.80
2022-12-06T09:03:27.991Z,5.00
2022-12-06T09:05:56.005Z,4.90
2022-12-06T09:08:24.051Z,5.20
2022-12-06T09:10:52.043Z,5.40
2022-12-06T09:13:20.027Z,5.70
2022-12-06T09:15:49.480Z,6.00
2022-12-06T09:18:17.425Z,5.50
2022-12-06T09:20:45.328Z,5.30
2022-12-06T09:23:13.295Z,5.10
2022-12-06T09:25:42.367Z,4.80
2022-12-06T09:28:10.291Z,4.50
2022-12-06T09:30:38.171Z,4.20
2022-12-06T09:33:07.352Z,4.30
2022-12-06T09:35:35.426Z,4.90
2022-12-06T09:38:03.759Z,5.20
2022-12-06T09:40:35.375Z,5.40
2022-12-06T09:43:11.442Z,5.10
2022-12-06T09:45:54.133Z,4.90
2022-12-06T09:48:38.237Z,5.30
2022-12-06T09:51:13.118Z,5.90
2022-12-06T09:53:47.211Z,6.10
2022-12-06T09:56:20.773Z,6.50
2022-12-06T09:58:58.611Z,7.10
2022-12-06T10:01:30.070Z,7.40
2022-12-06T10:04:11.589Z,7.70
2022-12-06T10:06:41.402Z,7.80
2022-12-06T10:09:18.880Z,8.00
2022-12-06T10:11:56.627Z,7.60
2022-12-06T10:14:33.200Z,7.70
2022-12-06T10:17:03.556Z,7.00
2022-12-06T10:19:39.879Z,6.50
2022-12-06T10:22:13.040Z,6.30
2022-12-06T10:24:49.819Z,6.30
2022-12-06T10:27:22.856Z,6.00
2022-12-06T10:29:55.827Z,5.60
2022-12-06T10:32:32.162Z,5.50
2022-12-06T10:35:06.299Z,5.60
2022-12-06T10:37:38.926Z,5.50
2022-12-06T10:40:09.267Z,5.40
2022-12-06T10:42:38.555Z,5.20
2022-12-06T10:45:30.137Z,5.00
2022-12-06T10:47:57.133Z,5.20
2022-12-06T10:50:27.202Z,5.00
2022-12-06T10:53:01.655Z,4.90
2022-12-06T10:55:32.423Z,4.80
2022-12-06T10:58:04.131Z,4.80
2022-12-06T11:00:32.457Z,4.80
2022-12-06T11:03:02.555Z,4.80
2022-12-06T11:05:35.848Z,4.80
2022-12-06T11:08:05.613Z,4.80
2022-12-06T11:10:34.496Z,4.80
2022-12-06T11:13:07.116Z,4.80
2022-12-06T11:15:36.161Z,4.60
2022-12-06T11:18:05.835Z,4.70
2022-12-06T11:20:39.702Z,4.60
2022-12-06T11:23:12.596Z,4.40
2022-12-06T11:25:48.954Z,4.40
2022-12-06T11:28:28.402Z,4.40
2022-12-06T11:30:56.255Z,4.40
2022-12-06T11:33:27.354Z,4.40
2022-12-06T11:35:56.813Z,4.50
2022-12-06T11:38:24.663Z,4.40
2022-12-06T11:40:52.791Z,4.30
2022-12-06T11:43:21.962Z,4.20
2022-12-06T11:45:49.789Z,4.20
2022-12-06T11:48:19.094Z,4.40
2022-12-06T11:50:47.664Z,4.30
2022-12-06T11:53:21.467Z,4.20
2022-12-06T11:55:50.847Z,4.20
2022-12-06T11:58:21.011Z,4.20
2022-12-06T12:00:57.711Z,4.20
2022-12-06T12:03:29.863Z,4.30
2022-12-06T12:06:16.258Z,4.20
2022-12-06T12:08:53.635Z,4.20
2022-12-06T12:11:21.831Z,4.20
2022-12-06T12:13:51.951Z,4.30
2022-12-06T12:16:20.853Z,4.30
2022-12-06T12:18:56.782Z,4.30
2022-12-06T12:21:32.837Z,4.30
2022-12-06T12:24:02.060Z,4.20
2022-12-06T12:26:40.395Z,4.30
2022-12-06T12:29:18.815Z,4.40
2022-12-06T12:31:54.495Z,4.40
2022-12-06T12:34:23.433Z,4.40
2022-12-06T12:36:52.795Z,4.50
2022-12-06T12:39:27.543Z,4.40
2022-12-06T12:41:55.390Z,4.30
2022-12-06T12:44:40.101Z,4.30
2022-12-06T12:47:17.237Z,4.30
2022-12-06T12:49:45.109Z,4.50
2022-12-06T12:52:27.449Z,4.50
2022-12-06T12:55:04.280Z,4.30
2022-12-06T12:57:32.279Z,4.30
2022-12-06T13:00:00.155Z,4.40
2022-12-06T13:02:29.620Z,4.70
2022-12-06T13:05:30.855Z,4.60
2022-12-06T13:07:48.871Z,4.60
2022-12-06T13:10:32.193Z,4.40
2022-12-06T13:13:01.569Z,4.30
2022-12-06T13:15:33.340Z,4.20
2022-12-06T13:18:01.989Z,4.20
2022-12-06T13:20:31.526Z,4.10
2022-12-06T13:23:01.308Z,4.10
2022-12-06T13:25:30.513Z,4.10
2022-12-06T13:28:05.039Z,4.00
2022-12-06T13:30:33.647Z,4.10
2022-12-06T13:33:03.038Z,4.10
2022-12-06T13:35:31.793Z,4.10
2022-12-06T13:38:00.508Z,4.10
2022-12-06T13:40:50.919Z,4.00
2022-12-06T13:43:55.812Z,3.90
2022-12-06T13:46:34.076Z,3.90
2022-12-06T13:49:03.635Z,3.80
2022-12-06T13:51:50.104Z,3.90
2022-12-06T13:54:38.642Z,3.90
2022-12-06T13:57:29.807Z,3.90
2022-12-06T13:59:58.455Z,3.80
2022-12-06T14:02:44.811Z,3.80
2022-12-06T14:06:15.508Z,3.90
2022-12-06T14:08:45.055Z,3.80
2022-12-06T14:11:21.219Z,3.70
2022-12-06T14:14:00.427Z,3.70
2022-12-06T14:16:31.759Z,3.70
2022-12-06T14:18:59.809Z,3.70
2022-12-06T14:21:31.624Z,3.60
2022-12-06T14:23:59.464Z,3.70
2022-12-06T14:26:28.067Z,3.70
2022-12-06T14:28:58.591Z,3.80
2022-12-06T14:31:29.184Z,3.70
2022-12-06T14:33:57.402Z,3.80
2022-12-06T14:36:29.699Z,3.80
2022-12-06T14:39:00.591Z,3.90
2022-12-06T14:41:54.181Z,3.80
2022-12-06T14:44:28.736Z,4.30
2022-12-06T14:46:56.722Z,4.20
2022-12-06T14:49:42.080Z,4.00
2022-12-06T14:52:24.013Z,3.90
2022-12-06T14:54:52.205Z,3.90
2022-12-06T14:57:30.446Z,3.80
2022-12-06T15:00:27.217Z,3.80
2022-12-06T15:03:01.118Z,3.80
2022-12-06T15:05:36.209Z,3.70
2022-12-06T15:08:32.241Z,3.70
2022-12-06T15:11:00.803Z,3.70
2022-12-06T15:13:27.743Z,3.70
2022-12-06T15:16:14.120Z,3.70
2022-12-06T15:18:42.912Z,3.70
2022-12-06T15:21:14.295Z,3.80
2022-12-06T15:23:48.336Z,3.90
2022-12-06T15:26:16.384Z,3.90
2022-12-06T15:28:44.301Z,3.80
2022-12-06T15:31:18.861Z,3.60
2022-12-06T15:33:47.952Z,3.60
2022-12-06T15:36:18.038Z,3.60
2022-12-06T15:38:45.979Z,3.60
2022-12-06T15:41:15.978Z,3.60
2022-12-06T15:43:43.802Z,3.50
2022-12-06T15:46:16.766Z,3.60
2022-12-06T15:48:46.010Z,4.00
2022-12-06T15:51:20.185Z,3.70
2022-12-06T15:53:49.392Z,3.80
2022-12-06T15:56:18.255Z,3.70
2022-12-06T15:58:46.670Z,3.60
2022-12-06T16:01:16.582Z,3.60
2022-12-06T16:03:45.798Z,3.60
2022-12-06T16:06:14.546Z,3.50
2022-12-06T16:08:42.627Z,3.40
2022-12-06T16:11:12.312Z,3.40
2022-12-06T16:13:40.609Z,3.40
2022-12-06T16:16:08.928Z,3.40
2022-12-06T16:18:36.835Z,3.40
2022-12-06T16:21:06.171Z,3.40
2022-12-06T16:26:41.729Z,3.30
2022-12-06T16:29:11.334Z,3.30
2022-12-06T16:31:41.047Z,3.30
2022-12-06T16:34:09.199Z,3.30
2022-12-06T16:36:56.711Z,3.40
2022-12-06T16:39:24.580Z,3.30
2022-12-06T16:41:52.422Z,3.30
2022-12-06T16:44:20.255Z,3.20
2022-12-06T16:46:48.151Z,3.30
2022-12-06T16:52:07.713Z,3.30
2022-12-06T16:54:35.799Z,3.20
2022-12-06T16:57:03.679Z,3.10
2022-12-06T16:59:31.502Z,3.00
2022-12-06T17:01:59.443Z,3.10
2022-12-06T17:04:27.563Z,3.10
2022-12-06T17:06:55.425Z,3.10
2022-12-06T17:09:24.619Z,3.10
2022-12-06T17:12:09.039Z,3.10
2022-12-06T17:14:37.922Z,3.20
2022-12-06T17:17:05.885Z,3.30
2022-12-06T17:19:33.816Z,3.10
2022-12-06T17:22:02.317Z,3.10
2022-12-06T17:24:32.736Z,3.10
2022-12-06T17:27:00.599Z,3.00
2022-12-06T17:29:28.537Z,3.00
2022-12-06T17:31:56.556Z,3.00
2022-12-06T17:34:25.709Z,3.00
2022-12-06T17:36:53.855Z,2.90
2022-12-06T17:39:21.818Z,3.00
2022-12-06T17:42:08.400Z,3.00
2022-12-06T17:44:36.270Z,3.10
2022-12-06T17:47:04.165Z,3.10
2022-12-06T17:49:32.010Z,3.10
2022-12-06T17:51:59.849Z,3.00
2022-12-06T17:54:27.730Z,3.00
2022-12-06T17:56:56.974Z,3.10
2022-12-06T17:59:25.707Z,3.10
2022-12-06T18:04:41.880Z,3.10
2022-12-06T18:07:09.706Z,3.20
2022-12-06T18:09:37.547Z,3.20
2022-12-06T18:12:08.538Z,3.20
2022-12-06T18:14:36.456Z,3.10
2022-12-06T18:17:04.447Z,3.10
2022-12-06T18:19:32.636Z,3.00
2022-12-06T18:22:00.474Z,2.90
2022-12-06T18:24:35.220Z,3.00
2022-12-06T18:27:03.698Z,2.90
2022-12-06T18:29:32.925Z,2.90
2022-12-06T18:32:00.866Z,2.80
2022-12-06T18:34:28.753Z,2.90
2022-12-06T18:36:56.546Z,2.90
2022-12-06T18:39:25.293Z,3.10
2022-12-06T18:41:53.569Z,3.00
2022-12-06T18:44:21.492Z,2.90
2022-12-06T18:46:50.737Z,2.80
2022-12-06T18:49:18.572Z,2.90
2022-12-06T18:51:46.399Z,2.90
2022-12-06T18:54:14.732Z,2.90
2022-12-06T18:56:42.743Z,2.90
2022-12-06T18:59:11.976Z,3.10
2022-12-06T19:01:40.489Z,3.20
2022-12-06T19:04:11.389Z,3.10
2022-12-06T19:06:39.468Z,2.90
2022-12-06T19:09:09.329Z,3.00
2022-12-06T19:11:37.742Z,2.80
2022-12-06T19:14:06.191Z,2.80
2022-12-06T19:16:35.407Z,2.80
2022-12-06T19:19:03.723Z,2.80
2022-12-06T19:21:33.715Z,2.90
2022-12-06T19:24:01.680Z,2.80
2022-12-06T19:26:29.809Z,2.70
2022-12-06T19:28:57.737Z,2.70
2022-12-06T19:31:25.761Z,2.80
2022-12-06T19:33:53.769Z,2.80
2022-12-06T19:36:23.028Z,2.70
2022-12-06T19:38:56.143Z,2.80
2022-12-06T19:41:24.058Z,2.80
2022-12-06T19:44:09.743Z,2.90
2022-12-06T19:46:37.662Z,2.70
2022-12-06T19:49:07.040Z,2.80
2022-12-06T19:51:36.719Z,2.70
2022-12-06T19:54:06.064Z,2.70
2022-12-06T19:56:34.035Z,2.70
2022-12-06T19:59:05.254Z,2.60
2022-12-06T20:01:33.164Z,2.70
2022-12-06T20:04:00.995Z,2.60
2022-12-06T20:06:28.825Z,2.70
2022-12-06T20:08:57.192Z,2.70
2022-12-06T20:11:40.553Z,2.80
2022-12-06T20:14:09.625Z,2.80
2022-12-06T20:16:37.877Z,2.80
2022-12-06T20:19:06.164Z,2.70
2022-12-06T20:21:34.094Z,2.60
2022-12-06T20:24:01.964Z,2.70
2022-12-06T20:26:32.025Z,2.90
2022-12-06T20:29:00.145Z,2.90
2022-12-06T20:31:29.969Z,2.80
2022-12-06T20:33:57.876Z,2.90
2022-12-06T20:36:25.986Z,2.80
2022-12-06T20:38:53.907Z,2.70
2022-12-06T20:41:22.512Z,2.80
2022-12-06T20:43:52.135Z,2.70
2022-12-06T20:46:23.086Z,2.80
2022-12-06T20:48:51.049Z,2.80
2022-12-06T20:51:19.605Z,2.80
2022-12-06T20:53:47.647Z,2.70
2022-12-06T20:56:17.231Z,2.60
2022-12-06T20:58:45.366Z,2.60
2022-12-06T21:01:15.128Z,2.70
2022-12-06T21:03:43.114Z,2.70
2022-12-06T21:06:11.619Z,2.80
2022-12-06T21:08:39.507Z,2.70
2022-12-06T21:11:22.593Z,2.70
2022-12-06T21:13:51.659Z,2.50
2022-12-06T21:16:22.118Z,2.60
2022-12-06T21:18:54.338Z,2.70
2022-12-06T21:21:23.045Z,2.60
2022-12-06T21:23:50.966Z,2.50
2022-12-06T21:26:18.840Z,2.60
2022-12-06T21:28:46.798Z,2.60
2022-12-06T21:31:14.766Z,2.60
2022-12-06T21:33:43.985Z,2.60
2022-12-06T21:36:12.531Z,2.70
2022-12-06T21:38:40.398Z,2.50
2022-12-06T21:41:08.988Z,2.60
2022-12-06T21:43:36.891Z,2.60
2022-12-06T21:46:06.521Z,2.40
2022-12-06T21:48:34.403Z,2.50
2022-12-06T21:51:04.623Z,2.50
2022-12-06T21:53:32.612Z,2.40
2022-12-06T21:56:00.530Z,2.30
2022-12-06T21:58:28.380Z,2.50
2022-12-06T22:00:56.264Z,2.60
2022-12-06T22:03:24.398Z,2.50
2022-12-06T22:05:52.456Z,2.50
2022-12-06T22:08:21.810Z,2.50
2022-12-06T22:10:52.513Z,2.50
2022-12-06T22:13:20.357Z,2.50
2022-12-06T22:15:48.387Z,2.50
2022-12-06T22:18:16.287Z,2.50
2022-12-06T22:20:44.147Z,2.50
2022-12-06T22:23:12.103Z,2.50
2022-12-06T22:25:41.379Z,2.50
2022-12-06T22:28:09.235Z,2.50
2022-12-06T22:30:37.078Z,2.50
2022-12-06T22:33:04.968Z,2.60
2022-12-06T22:35:32.940Z,2.60
2022-12-06T22:38:00.808Z,3.00
2022-12-06T22:40:28.650Z,3.00
2022-12-06T22:42:57.850Z,2.90
2022-12-06T22:45:25.693Z,2.80
2022-12-06T22:47:53.576Z,2.80
2022-12-06T22:50:21.416Z,2.80
2022-12-06T22:52:49.277Z,2.80
2022-12-06T22:55:17.269Z,2.90
2022-12-06T22:57:45.115Z,2.70
2022-12-06T23:00:15.274Z,2.80
2022-12-06T23:02:43.135Z,2.70
2022-12-06T23:05:11.207Z,2.80
2022-12-06T23:07:39.107Z,2.70
2022-12-06T23:10:08.913Z,2.90
2022-12-06T23:12:37.291Z,2.70
2022-12-06T23:15:05.762Z,2.80
2022-12-06T23:17:34.967Z,2.80
2022-12-06T23:20:03.134Z,2.70
2022-12-06T23:22:32.935Z,2.70
2022-12-06T23:25:00.791Z,2.60
2022-12-06T23:27:28.664Z,2.60
2022-12-06T23:29:56.520Z,2.70
2022-12-06T23:32:24.407Z,2.60
2022-12-06T23:34:53.594Z,2.70
2022-12-06T23:37:21.456Z,2.60
2022-12-06T23:39:49.347Z,2.60
2022-12-06T23:42:17.214Z,2.50
2022-12-06T23:44:45.068Z,2.60
2022-12-06T23:47:12.944Z,2.60
2022-12-06T23:49:40.784Z,2.60
2022-12-06T23:52:10.006Z,2.60
2022-12-06T23:54:38.524Z,2.50
2022-12-06T23:57:06.357Z,2.50
2022-12-06T23:59:34.371Z,2.50
